createdAt,value
2019-02-05T07:15:47.073Z,9.00
2019-02-05T07:18:28.246Z,11.97
2019-02-05T07:21:09.683Z,8.33
2019-02-05T07:26:35.253Z,10.03
2019-02-05T07:29:15.722Z,6.93
2019-02-05T07:31:44.507Z,6.73
2019-02-05T07:34:13.518Z,9.97
2019-02-05T07:36:42.278Z,7.50
2019-02-05T07:39:11.435Z,10.63
2019-02-05T07:41:40.198Z,6.27
2019-02-05T07:44:08.949Z,8.43
2019-02-05T07:46:37.709Z,7.83
2019-02-05T07:49:06.410Z,11.57
2019-02-05T07:51:35.111Z,7.90
2019-02-05T07:54:03.897Z,8.53
2019-02-05T07:56:33.075Z,9.37
2019-02-05T07:59:09.829Z,8.73
2019-02-05T08:01:32.249Z,8.23
2019-02-05T08:04:01.005Z,6.70
2019-02-05T08:06:29.774Z,8.33
2019-02-05T08:08:58.457Z,8.90
2019-02-05T08:11:27.302Z,7.53
2019-02-05T08:13:56.898Z,11.93
2019-02-05T08:16:25.670Z,8.50
2019-02-05T08:18:54.434Z,6.60
2019-02-05T08:21:23.284Z,7.63
2019-02-05T08:23:52.039Z,10.77
2019-02-05T08:26:20.726Z,7.97
2019-02-05T08:28:49.411Z,6.97
2019-02-05T08:31:18.183Z,9.50
2019-02-05T08:33:47.346Z,6.57
2019-02-05T08:36:16.121Z,9.23
2019-02-05T08:38:44.882Z,7.57
2019-02-05T08:41:13.650Z,11.13
2019-02-05T08:43:42.412Z,9.67
2019-02-05T08:46:11.190Z,9.90
2019-02-05T08:48:39.958Z,10.57
2019-02-05T08:51:09.119Z,10.93
2019-02-05T08:53:37.871Z,7.13
2019-02-05T08:56:06.629Z,9.90
2019-02-05T08:58:35.391Z,13.93
2019-02-05T09:01:05.025Z,9.07
2019-02-05T09:03:33.778Z,7.43
2019-02-05T09:06:02.479Z,10.00
2019-02-05T09:08:31.542Z,10.27
2019-02-05T09:11:00.382Z,7.70
2019-02-05T09:13:29.146Z,11.30
2019-02-05T09:15:57.918Z,8.97
2019-02-05T09:18:26.684Z,10.53
2019-02-05T09:20:55.529Z,10.67
2019-02-05T09:23:24.358Z,10.03
2019-02-05T09:25:53.696Z,8.13
2019-02-05T09:28:22.446Z,11.00
2019-02-05T09:30:51.209Z,9.17
2019-02-05T09:33:19.980Z,11.03
2019-02-05T09:35:48.747Z,8.90
2019-02-05T09:38:17.509Z,8.00
2019-02-05T09:40:46.340Z,9.33
2019-02-05T09:43:15.532Z,7.93
2019-02-05T09:45:44.339Z,7.57
2019-02-05T09:48:13.185Z,7.70
2019-02-05T09:50:44.787Z,9.07
2019-02-05T09:53:12.363Z,8.10
2019-02-05T09:55:41.118Z,11.13
2019-02-05T09:58:09.921Z,9.87
2019-02-05T10:00:40.208Z,7.60
2019-02-05T10:03:09.244Z,10.77
2019-02-05T10:05:38.073Z,9.53
2019-02-05T10:08:07.212Z,11.40
2019-02-05T10:10:35.970Z,10.17
2019-02-05T10:13:05.302Z,12.20
2019-02-05T10:15:35.509Z,10.60
2019-02-05T10:18:05.741Z,11.00
2019-02-05T10:20:34.427Z,10.00
2019-02-05T10:23:05.263Z,9.27
2019-02-05T10:25:34.189Z,7.93
2019-02-05T10:28:03.028Z,8.80
2019-02-05T10:30:34.075Z,9.47
2019-02-05T10:33:03.777Z,9.07
2019-02-05T10:35:32.601Z,9.17
2019-02-05T10:38:01.425Z,12.93
2019-02-05T10:40:30.483Z,10.40
2019-02-05T10:42:59.187Z,11.80
2019-02-05T10:45:28.185Z,8.23
2019-02-05T10:47:57.038Z,10.70
2019-02-05T10:50:26.074Z,9.47
2019-02-05T10:52:54.914Z,9.60
2019-02-05T10:55:23.975Z,8.07
2019-02-05T10:57:53.017Z,9.60
2019-02-05T11:00:25.409Z,9.47
2019-02-05T11:02:54.834Z,8.53
2019-02-05T11:05:25.826Z,10.63
2019-02-05T11:07:54.662Z,10.57
2019-02-05T11:10:23.466Z,11.20
2019-02-05T11:12:52.310Z,10.87
2019-02-05T11:15:23.317Z,9.77
2019-02-05T11:17:52.081Z,10.80
2019-02-05T11:20:22.859Z,9.53
2019-02-05T11:22:51.815Z,10.07
2019-02-05T11:25:20.916Z,8.97
2019-02-05T11:27:49.691Z,11.23
2019-02-05T11:30:26.610Z,11.70
2019-02-05T11:32:55.446Z,14.03
2019-02-05T11:35:24.272Z,10.00
2019-02-05T11:37:53.427Z,12.17
2019-02-05T11:40:24.614Z,9.60
2019-02-05T11:42:53.371Z,11.53
2019-02-05T11:45:22.475Z,10.30
2019-02-05T11:47:51.582Z,11.90
2019-02-05T11:50:20.402Z,13.10
2019-02-05T11:52:49.326Z,9.27
2019-02-05T11:55:19.808Z,11.93
2019-02-05T11:57:48.568Z,12.80
2019-02-05T12:00:32.584Z,12.20
2019-02-05T12:02:55.953Z,10.63
2019-02-05T12:05:24.705Z,10.30
2019-02-05T12:07:53.842Z,12.83
2019-02-05T12:10:22.610Z,11.00
2019-02-05T12:12:51.374Z,10.17
2019-02-05T12:15:20.284Z,13.30
2019-02-05T12:17:49.389Z,13.87
2019-02-05T12:20:18.331Z,9.53
2019-02-05T12:22:48.301Z,10.27
2019-02-05T12:25:17.449Z,12.40
2019-02-05T12:27:46.393Z,13.70
2019-02-05T12:30:18.868Z,13.63
2019-02-05T12:32:47.834Z,13.97
2019-02-05T12:35:16.670Z,12.00
2019-02-05T12:37:45.431Z,16.07
2019-02-05T12:40:15.399Z,11.20
2019-02-05T12:42:44.649Z,14.17
2019-02-05T12:45:16.257Z,17.27
2019-02-05T12:47:44.955Z,12.47
2019-02-05T12:50:16.908Z,14.00
2019-02-05T12:52:45.751Z,12.47
2019-02-05T12:55:16.295Z,14.17
2019-02-05T12:57:45.309Z,14.10
2019-02-05T13:00:17.949Z,14.83
2019-02-05T13:02:46.714Z,15.20
2019-02-05T13:05:16.326Z,14.00
2019-02-05T13:07:45.005Z,12.60
2019-02-05T13:10:15.825Z,15.37
2019-02-05T13:12:44.492Z,16.50
2019-02-05T13:15:13.534Z,14.47
2019-02-05T13:17:42.210Z,16.00
2019-02-05T13:20:17.639Z,16.27
2019-02-05T13:22:46.413Z,14.80
2019-02-05T13:25:18.081Z,17.00
2019-02-05T13:27:46.830Z,13.30
2019-02-05T13:30:18.011Z,15.10
2019-02-05T13:32:46.690Z,15.67
2019-02-05T13:35:15.799Z,13.97
2019-02-05T13:37:44.478Z,19.27
2019-02-05T13:40:15.627Z,13.50
2019-02-05T13:42:44.299Z,15.73
2019-02-05T13:45:13.887Z,15.23
2019-02-05T13:47:42.567Z,14.10
2019-02-05T13:50:14.870Z,19.27
2019-02-05T13:52:43.815Z,14.10
2019-02-05T13:55:16.031Z,16.20
2019-02-05T13:57:44.719Z,15.73
2019-02-05T14:00:17.930Z,16.80
2019-02-05T14:02:46.606Z,15.87
2019-02-05T14:05:15.285Z,16.67
2019-02-05T14:07:44.333Z,17.63
2019-02-05T14:10:16.747Z,14.20
2019-02-05T14:12:45.426Z,12.93
2019-02-05T14:15:14.611Z,15.83
2019-02-05T14:17:43.298Z,14.83
2019-02-05T14:20:13.231Z,15.73
2019-02-05T14:22:42.378Z,16.30
2019-02-05T14:25:12.359Z,19.83
2019-02-05T14:27:41.038Z,20.03
2019-02-05T14:30:14.387Z,17.47
2019-02-05T14:32:43.154Z,18.20
2019-02-05T14:35:11.913Z,16.70
2019-02-05T14:37:40.862Z,15.63
2019-02-05T14:40:12.158Z,18.83
2019-02-05T14:42:40.866Z,17.43
2019-02-05T14:45:10.543Z,16.77
2019-02-05T14:47:39.230Z,21.30
2019-02-05T14:50:12.738Z,17.53
2019-02-05T14:52:41.418Z,16.87
2019-02-05T14:55:10.253Z,15.20
2019-02-05T14:57:38.936Z,19.30
2019-02-05T15:00:11.149Z,16.43
2019-02-05T15:02:39.826Z,23.93
2019-02-05T15:05:09.551Z,17.23
2019-02-05T15:07:38.231Z,19.97
2019-02-05T15:10:08.761Z,19.20
2019-02-05T15:12:37.516Z,18.80
2019-02-05T15:15:08.898Z,18.73
2019-02-05T15:17:37.703Z,16.10
2019-02-05T15:20:10.987Z,21.03
2019-02-05T15:22:39.687Z,18.87
2019-02-05T15:25:09.102Z,19.53
2019-02-05T15:27:37.775Z,20.47
2019-02-05T15:30:09.825Z,15.30
2019-02-05T15:32:45.896Z,19.17
2019-02-05T15:35:14.666Z,19.27
2019-02-05T15:37:43.440Z,16.50
2019-02-05T15:40:12.822Z,20.53
2019-02-05T15:42:41.493Z,20.90
2019-02-05T15:45:11.191Z,20.40
2019-02-05T15:47:40.238Z,21.87
2019-02-05T15:50:09.084Z,20.30
2019-02-05T15:52:37.769Z,21.27
2019-02-05T15:55:07.049Z,22.40
2019-02-05T15:57:35.728Z,25.03
2019-02-05T16:00:06.441Z,21.80
2019-02-05T16:02:35.485Z,21.23
2019-02-05T16:05:05.491Z,22.13
2019-02-05T16:07:34.153Z,22.33
2019-02-05T16:10:02.915Z,23.73
2019-02-05T16:12:31.594Z,23.57
2019-02-05T16:15:00.404Z,25.57
2019-02-05T16:17:29.119Z,27.03
2019-02-05T16:19:57.791Z,22.57
2019-02-05T16:22:26.767Z,23.73
2019-02-05T16:24:55.622Z,24.20
2019-02-05T16:27:24.393Z,25.97
2019-02-05T16:29:53.334Z,25.30
2019-02-05T16:32:22.022Z,24.57
2019-02-05T16:34:51.194Z,23.13
2019-02-05T16:37:19.883Z,29.03
2019-02-05T16:39:48.555Z,29.37
2019-02-05T16:42:17.233Z,26.80
2019-02-05T16:44:45.985Z,22.23
2019-02-05T16:47:14.678Z,25.10
2019-02-05T16:49:45.086Z,27.17
2019-02-05T16:52:13.782Z,25.73
2019-02-05T16:54:42.459Z,25.80
2019-02-05T16:57:11.154Z,27.27
2019-02-05T16:59:39.848Z,28.53
2019-02-05T17:02:08.682Z,28.60
2019-02-05T17:04:37.367Z,26.03
2019-02-05T17:07:06.377Z,28.27
2019-02-05T17:09:35.054Z,26.40
2019-02-05T17:12:03.814Z,28.10
2019-02-05T17:14:32.493Z,23.60
2019-02-05T17:17:01.259Z,32.77
2019-02-05T17:19:31.810Z,29.87
2019-02-05T17:22:00.347Z,32.63
2019-02-05T17:24:29.034Z,26.70
2019-02-05T17:26:57.790Z,27.87
2019-02-05T17:29:26.468Z,26.97
2019-02-05T17:31:55.235Z,24.03
2019-02-05T17:34:23.911Z,30.67
2019-02-05T17:36:53.078Z,32.97
2019-02-05T17:39:21.766Z,28.27
2019-02-05T17:41:50.522Z,29.47
2019-02-05T17:44:19.193Z,29.23
2019-02-05T17:46:47.881Z,28.77
2019-02-05T17:49:16.710Z,27.20
2019-02-05T17:51:45.397Z,26.43
2019-02-05T17:54:15.145Z,27.50
2019-02-05T17:56:44.133Z,27.43
2019-02-05T17:59:12.888Z,31.50
2019-02-05T18:01:41.584Z,35.33
2019-02-05T18:04:10.260Z,30.43
2019-02-05T18:06:38.959Z,31.67
2019-02-05T18:09:09.191Z,29.33
2019-02-05T18:11:37.890Z,28.03
2019-02-05T18:14:06.727Z,33.40
2019-02-05T18:16:35.426Z,32.17
2019-02-05T18:19:04.179Z,30.97
2019-02-05T18:21:32.879Z,33.13
2019-02-05T18:24:01.855Z,33.77
2019-02-05T18:26:30.549Z,31.77
2019-02-05T18:28:59.318Z,32.20
2019-02-05T18:31:28.102Z,30.10
2019-02-05T18:33:56.803Z,29.53
2019-02-05T18:36:25.507Z,29.90
2019-02-05T18:38:54.198Z,30.07
2019-02-05T18:41:22.880Z,32.83
2019-02-05T18:43:51.657Z,35.13
2019-02-05T18:46:20.497Z,31.63
2019-02-05T18:48:49.168Z,34.63
2019-02-05T18:51:17.853Z,35.63
2019-02-05T18:53:46.538Z,35.50
2019-02-05T18:56:15.573Z,35.73
2019-02-05T18:58:44.271Z,33.27
2019-02-05T19:01:13.011Z,31.77
2019-02-05T19:03:41.711Z,33.33
2019-02-05T19:06:10.382Z,35.57
2019-02-05T19:08:39.053Z,37.80
2019-02-05T19:11:08.729Z,33.80
2019-02-05T19:13:37.472Z,33.83
2019-02-05T19:16:06.230Z,38.70
2019-02-05T19:18:34.900Z,32.07
2019-02-05T19:21:03.549Z,34.50
2019-02-05T19:23:32.216Z,35.60
2019-02-05T19:26:08.974Z,30.37
2019-02-05T19:28:41.940Z,31.67
2019-02-05T19:31:38.969Z,35.30
2019-02-05T19:34:08.198Z,35.47
2019-02-05T19:36:36.929Z,34.47
2019-02-05T19:39:07.796Z,33.53
2019-02-05T19:41:36.470Z,33.90
2019-02-05T19:44:05.307Z,31.70
2019-02-05T19:46:51.961Z,36.13
2019-02-05T19:49:36.026Z,31.13
2019-02-05T19:52:05.674Z,35.17
2019-02-05T19:54:34.374Z,34.23
2019-02-05T19:57:03.134Z,37.10
2019-02-05T19:59:31.834Z,37.37
2019-02-05T20:02:00.791Z,35.13
2019-02-05T20:04:29.554Z,34.73
2019-02-05T20:06:58.230Z,34.80
2019-02-05T20:09:26.932Z,43.30
2019-02-05T20:11:55.661Z,41.57
2019-02-05T20:14:24.423Z,31.23
2019-02-05T20:16:53.108Z,34.10
2019-02-05T20:19:24.596Z,37.83
2019-02-05T20:21:52.547Z,36.30
2019-02-05T20:24:21.318Z,39.13
2019-02-05T20:26:50.041Z,43.70
2019-02-05T20:29:18.790Z,37.93
2019-02-05T20:31:47.470Z,41.33
2019-02-05T20:34:16.152Z,36.07
2019-02-05T20:36:44.999Z,39.33
2019-02-05T20:39:15.508Z,37.30
2019-02-05T20:41:44.276Z,34.27
2019-02-05T20:44:12.969Z,39.03
2019-02-05T20:46:41.715Z,36.23
2019-02-05T20:49:10.393Z,38.33
2019-02-05T20:51:39.130Z,37.97
2019-02-05T20:54:08.214Z,36.43
2019-02-05T20:56:36.894Z,32.23
2019-02-05T20:59:06.134Z,36.53
2019-02-05T21:01:34.816Z,37.43
2019-02-05T21:04:03.770Z,34.77
2019-02-05T21:06:32.446Z,34.73
2019-02-05T21:09:01.134Z,36.77
2019-02-05T21:11:30.104Z,36.50
2019-02-05T21:13:58.933Z,36.47
2019-02-05T21:16:27.613Z,37.77
2019-02-05T21:18:56.399Z,36.03
2019-02-05T21:21:25.066Z,38.50
2019-02-05T21:23:53.749Z,37.20
2019-02-05T21:26:22.414Z,35.50
2019-02-05T21:28:51.081Z,38.33
2019-02-05T21:31:19.912Z,37.60
2019-02-05T21:33:48.618Z,37.53
2019-02-05T21:36:17.287Z,38.87
2019-02-05T21:38:46.032Z,35.53
2019-02-05T21:41:14.704Z,39.87
2019-02-05T21:43:43.758Z,37.37
2019-02-05T21:46:12.436Z,34.33
2019-02-05T21:48:41.128Z,38.10
2019-02-05T21:51:09.963Z,35.53
2019-02-05T21:53:38.663Z,37.40
2019-02-05T21:56:07.415Z,37.47
2019-02-05T21:58:36.179Z,34.00
2019-02-05T22:01:05.739Z,36.13
2019-02-05T22:03:34.505Z,35.20
